createdAt,value
2023-03-30T00:00:47.016Z,97678.59
2023-03-30T00:03:32.823Z,97675.34
2023-03-30T00:06:18.021Z,97681.66
2023-03-30T00:09:04.380Z,97691.19
2023-03-30T00:11:49.468Z,97687.72
2023-03-30T00:14:35.226Z,97662.75
2023-03-30T00:17:20.348Z,97684.41
2023-03-30T00:20:07.349Z,97682.59
2023-03-30T00:22:52.768Z,97685.78
2023-03-30T00:25:38.127Z,97654.97
2023-03-30T00:28:24.669Z,97685.69
2023-03-30T00:31:10.235Z,97663.88
2023-03-30T00:33:55.354Z,97662.06
2023-03-30T00:36:40.753Z,97668.31
2023-03-30T00:39:25.990Z,97661.00
2023-03-30T00:42:14.970Z,97655.31
2023-03-30T00:45:15.123Z,97640.91
2023-03-30T00:48:16.488Z,97626.06
2023-03-30T00:51:08.639Z,97628.47
2023-03-30T00:53:59.695Z,97630.16
2023-03-30T00:56:45.599Z,97620.63
2023-03-30T00:59:32.306Z,97621.06
2023-03-30T01:02:19.898Z,97621.78
2023-03-30T01:05:06.058Z,97557.06
2023-03-30T01:07:52.191Z,97616.34
2023-03-30T01:10:37.554Z,97603.94
2023-03-30T01:13:22.785Z,97599.84
2023-03-30T01:16:42.489Z,97604.88
2023-03-30T01:20:01.360Z,97603.13
2023-03-30T01:22:54.537Z,97602.53
2023-03-30T01:25:52.174Z,97610.44
2023-03-30T01:28:56.895Z,97610.97
2023-03-30T01:31:50.550Z,97613.78
2023-03-30T01:34:53.850Z,97610.59
2023-03-30T01:38:17.727Z,97609.94
2023-03-30T01:41:16.194Z,97603.56
2023-03-30T01:44:28.923Z,97598.88
2023-03-30T01:47:28.110Z,97591.50
2023-03-30T01:50:28.922Z,97601.63
2023-03-30T01:53:14.014Z,97611.16
2023-03-30T01:56:34.311Z,97615.63
2023-03-30T01:59:30.561Z,97562.75
2023-03-30T02:02:18.603Z,97596.97
2023-03-30T02:05:05.538Z,97613.28
2023-03-30T02:07:55.174Z,97620.78
2023-03-30T02:10:44.086Z,97559.97
2023-03-30T02:13:32.467Z,97605.34
2023-03-30T02:16:24.517Z,97596.41
2023-03-30T02:19:09.988Z,97601.69
2023-03-30T02:21:56.042Z,97544.81
2023-03-30T02:24:45.316Z,97605.19
2023-03-30T02:27:30.682Z,97597.25
2023-03-30T02:30:16.455Z,97588.56
2023-03-30T02:33:02.323Z,97598.13
2023-03-30T02:35:55.444Z,97602.19
2023-03-30T02:38:50.849Z,97585.22
2023-03-30T02:41:57.925Z,97606.31
2023-03-30T02:44:58.250Z,97581.16
2023-03-30T02:47:52.808Z,97583.81
2023-03-30T02:50:51.032Z,97594.53
2023-03-30T02:54:23.264Z,97577.88
2023-03-30T02:57:51.158Z,97580.47
2023-03-30T03:01:03.553Z,97579.28
2023-03-30T03:04:01.563Z,97574.41
2023-03-30T03:06:53.072Z,97568.94
2023-03-30T03:09:38.136Z,97567.91
2023-03-30T03:12:23.507Z,97546.25
2023-03-30T03:15:09.392Z,97564.91
2023-03-30T03:17:59.092Z,97556.00
2023-03-30T03:20:44.275Z,97559.94
2023-03-30T03:23:30.117Z,97569.00
2023-03-30T03:26:15.415Z,97561.84
2023-03-30T03:29:00.996Z,97562.63
2023-03-30T03:31:46.288Z,97568.94
2023-03-30T03:34:31.719Z,97592.47
2023-03-30T03:37:21.213Z,97385.28
2023-03-30T03:40:07.161Z,97579.25
2023-03-30T03:42:53.050Z,97592.44
2023-03-30T03:45:38.780Z,97599.78
2023-03-30T03:48:25.179Z,97598.19
2023-03-30T03:51:10.709Z,97597.78
2023-03-30T03:53:56.545Z,97597.66
2023-03-30T03:56:41.937Z,97590.09
2023-03-30T03:59:27.563Z,97597.06
2023-03-30T04:02:13.036Z,97576.59
2023-03-30T04:04:58.590Z,97585.13
2023-03-30T04:07:43.749Z,97587.34
2023-03-30T04:10:30.342Z,97546.34
2023-03-30T04:13:22.075Z,97587.75
2023-03-30T04:16:08.466Z,97566.63
2023-03-30T04:19:12.356Z,97574.75
2023-03-30T04:22:09.120Z,97567.88
2023-03-30T04:25:13.269Z,97563.41
2023-03-30T04:28:17.807Z,97556.50
2023-03-30T04:31:30.233Z,97550.63
2023-03-30T04:34:40.505Z,97545.56
2023-03-30T04:37:52.433Z,97539.66
2023-03-30T04:40:52.549Z,97542.88
2023-03-30T04:43:50.292Z,97521.59
2023-03-30T04:46:54.903Z,97515.94
2023-03-30T04:50:03.404Z,97523.00
2023-03-30T04:53:07.722Z,97521.56
2023-03-30T04:56:23.285Z,97507.50
2023-03-30T04:59:38.605Z,97484.88
2023-03-30T05:02:23.679Z,97492.19
2023-03-30T05:05:21.300Z,97478.00
2023-03-30T05:08:32.807Z,97463.72
2023-03-30T05:11:35.927Z,97469.31
2023-03-30T05:14:39.526Z,97459.41
2023-03-30T05:17:45.690Z,97443.19
2023-03-30T05:21:03.641Z,97446.88
2023-03-30T05:24:05.290Z,97449.56
2023-03-30T05:27:09.482Z,97459.22
2023-03-30T05:30:05.151Z,97460.38
2023-03-30T05:33:19.758Z,97461.25
2023-03-30T05:36:11.486Z,97466.53
2023-03-30T05:39:14.765Z,97457.91
2023-03-30T05:42:20.349Z,97458.16
2023-03-30T05:45:20.686Z,97463.84
2023-03-30T05:48:31.802Z,97450.63
2023-03-30T05:51:46.717Z,97445.78
2023-03-30T05:54:45.552Z,97442.38
2023-03-30T05:57:50.957Z,97434.59
2023-03-30T06:01:02.760Z,97418.34
2023-03-30T06:03:53.929Z,97440.13
2023-03-30T06:06:39.519Z,97438.28
2023-03-30T06:09:25.104Z,97384.63
2023-03-30T06:12:10.554Z,97443.31
2023-03-30T06:14:58.031Z,97445.19
2023-03-30T06:17:49.748Z,97437.81
2023-03-30T06:20:35.228Z,97431.16
2023-03-30T06:23:20.960Z,97375.41
2023-03-30T06:26:08.977Z,97426.03
2023-03-30T06:28:55.739Z,97431.31
2023-03-30T06:31:41.580Z,97438.66
2023-03-30T06:34:46.892Z,97425.38
2023-03-30T06:37:33.326Z,97431.81
2023-03-30T06:40:19.044Z,97446.44
2023-03-30T06:43:08.190Z,97423.16
2023-03-30T06:45:56.477Z,97443.59
2023-03-30T06:48:41.498Z,97443.28
2023-03-30T06:51:46.007Z,97423.81
2023-03-30T06:54:31.992Z,97448.66
2023-03-30T06:57:23.469Z,97452.41
2023-03-30T07:00:09.500Z,97451.25
2023-03-30T07:03:17.569Z,97455.47
2023-03-30T07:06:10.299Z,97458.19
2023-03-30T07:08:57.406Z,97460.09
2023-03-30T07:11:44.757Z,97430.34
2023-03-30T07:14:30.300Z,97457.19
2023-03-30T07:17:15.736Z,97458.78
2023-03-30T07:20:01.235Z,97468.34
2023-03-30T07:22:46.896Z,97457.22
2023-03-30T07:25:34.292Z,97462.56
2023-03-30T07:28:27.915Z,97468.78
2023-03-30T07:31:13.909Z,97472.66
2023-03-30T07:34:00.957Z,97486.41
2023-03-30T07:36:50.041Z,97487.34
2023-03-30T07:39:36.105Z,97492.88
2023-03-30T07:42:23.054Z,97498.59
2023-03-30T07:45:09.888Z,97490.69
2023-03-30T07:47:56.569Z,97483.78
2023-03-30T07:50:42.286Z,97490.34
2023-03-30T07:53:27.718Z,97487.59
2023-03-30T07:56:13.446Z,97478.97
2023-03-30T07:59:03.347Z,97460.34
2023-03-30T08:01:52.681Z,97401.34
2023-03-30T08:04:55.226Z,97465.56
2023-03-30T08:07:49.947Z,97458.97
2023-03-30T08:10:41.941Z,97468.34
2023-03-30T08:13:27.149Z,97484.44
2023-03-30T08:16:12.592Z,97492.00
2023-03-30T08:18:57.979Z,97489.13
2023-03-30T08:21:43.939Z,97483.13
2023-03-30T08:24:35.247Z,97432.75
2023-03-30T08:27:20.829Z,97495.44
2023-03-30T08:30:08.159Z,97480.34
2023-03-30T08:32:53.504Z,97485.00
2023-03-30T08:35:39.059Z,97484.31
2023-03-30T08:38:24.591Z,97470.94
2023-03-30T08:41:30.216Z,97467.66
2023-03-30T08:44:36.396Z,97468.53
2023-03-30T08:47:31.617Z,97478.53
2023-03-30T08:50:35.814Z,97469.59
2023-03-30T08:53:21.389Z,97459.31
2023-03-30T08:56:21.418Z,97465.06
2023-03-30T08:59:33.775Z,97460.19
2023-03-30T09:02:24.349Z,97467.50
2023-03-30T09:05:31.066Z,97478.09
2023-03-30T09:08:21.267Z,97439.00
2023-03-30T09:11:13.497Z,97453.09
2023-03-30T09:14:03.214Z,97479.19
2023-03-30T09:17:00.186Z,97486.44
2023-03-30T09:20:03.576Z,97486.78
2023-03-30T09:22:49.844Z,97484.38
2023-03-30T09:25:47.368Z,97483.22
2023-03-30T09:28:41.555Z,97474.38
2023-03-30T09:31:45.029Z,97466.19
2023-03-30T09:34:45.318Z,97467.38
2023-03-30T09:37:30.987Z,97463.19
2023-03-30T09:40:22.497Z,97480.91
2023-03-30T09:43:32.980Z,97466.28
2023-03-30T09:46:18.367Z,97473.84
2023-03-30T09:49:15.104Z,97471.94
2023-03-30T09:52:08.283Z,97482.41
2023-03-30T09:54:54.385Z,97479.53
2023-03-30T09:57:39.412Z,97463.91
2023-03-30T10:00:30.511Z,97438.66
2023-03-30T10:03:23.360Z,97461.28
2023-03-30T10:06:12.072Z,97456.44
2023-03-30T10:08:57.428Z,97385.75
2023-03-30T10:11:50.823Z,97460.38
2023-03-30T10:14:36.420Z,97460.03
2023-03-30T10:17:24.675Z,97454.94
2023-03-30T10:20:29.988Z,97448.13
2023-03-30T10:23:19.906Z,97446.00
2023-03-30T10:26:11.788Z,97464.66
2023-03-30T10:29:02.352Z,97451.41
2023-03-30T10:31:52.067Z,97433.72
2023-03-30T10:34:42.582Z,97395.72
2023-03-30T10:37:34.290Z,97443.72
2023-03-30T10:40:21.540Z,97438.34
2023-03-30T10:43:15.069Z,97430.19
2023-03-30T10:46:24.547Z,97432.97
2023-03-30T10:49:43.680Z,97419.03
2023-03-30T10:52:43.189Z,97412.56
2023-03-30T10:55:46.626Z,97422.94
2023-03-30T10:58:31.690Z,97418.09
2023-03-30T11:01:37.138Z,97403.34
2023-03-30T11:04:38.727Z,97400.59
2023-03-30T11:07:38.731Z,97404.59
2023-03-30T11:10:27.598Z,97393.31
2023-03-30T11:13:24.164Z,97384.75
2023-03-30T11:16:25.628Z,97387.03
2023-03-30T11:19:18.099Z,97388.41
2023-03-30T11:22:17.923Z,97371.69
2023-03-30T11:25:16.810Z,97392.72
2023-03-30T11:28:11.674Z,97383.00
2023-03-30T11:31:04.761Z,97361.28
2023-03-30T11:34:31.045Z,97394.47
2023-03-30T11:37:30.936Z,97384.25
2023-03-30T11:40:18.205Z,97386.38
2023-03-30T11:43:03.672Z,97381.59
2023-03-30T11:45:52.053Z,97374.59
2023-03-30T11:48:52.134Z,97368.16
2023-03-30T11:52:03.492Z,97374.53
2023-03-30T11:55:02.936Z,97357.81
2023-03-30T11:58:26.438Z,97355.78
2023-03-30T12:01:37.021Z,97355.44
2023-03-30T12:04:38.256Z,97352.16
2023-03-30T12:07:52.846Z,97360.09
2023-03-30T12:10:42.795Z,97364.31
2023-03-30T12:13:35.757Z,97366.59
2023-03-30T12:16:40.440Z,97376.09
2023-03-30T12:19:42.402Z,97368.13
2023-03-30T12:22:38.354Z,97360.59
2023-03-30T12:26:00.879Z,97351.69
2023-03-30T12:29:20.763Z,97345.84
2023-03-30T12:31:58.638Z,97332.19
2023-03-30T12:34:44.548Z,97391.94
2023-03-30T12:37:36.109Z,97440.34
2023-03-30T12:40:21.782Z,97453.53
2023-03-30T12:43:29.464Z,97472.31
2023-03-30T12:46:33.722Z,97480.31
2023-03-30T12:49:54.072Z,97489.66
2023-03-30T12:52:57.973Z,97481.00
2023-03-30T12:55:43.497Z,97494.16
2023-03-30T12:58:42.813Z,97488.09
2023-03-30T13:01:56.773Z,97439.53
2023-03-30T13:04:45.244Z,97492.38
2023-03-30T13:07:32.605Z,97480.91
2023-03-30T13:10:30.224Z,97482.22
2023-03-30T13:13:43.631Z,97484.09
2023-03-30T13:17:06.407Z,97470.91
2023-03-30T13:20:32.026Z,97469.28
2023-03-30T13:23:20.465Z,97490.38
2023-03-30T13:26:34.538Z,97496.03
2023-03-30T13:29:24.247Z,97504.09
2023-03-30T13:32:34.647Z,97510.91
2023-03-30T13:35:41.435Z,97509.94
2023-03-30T13:38:49.434Z,97500.91
2023-03-30T13:42:10.050Z,97497.16
2023-03-30T13:45:08.774Z,97493.06
2023-03-30T13:48:17.114Z,97507.03
2023-03-30T13:51:04.070Z,97429.44
2023-03-30T13:53:58.591Z,97494.56
2023-03-30T13:56:48.653Z,97502.06
2023-03-30T13:59:37.614Z,97467.38
2023-03-30T14:02:24.738Z,97505.09
2023-03-30T14:05:27.106Z,97496.94
2023-03-30T14:08:12.796Z,97490.09
2023-03-30T14:10:58.800Z,97488.16
2023-03-30T14:13:47.143Z,97495.63
2023-03-30T14:16:39.913Z,97485.19
2023-03-30T14:19:44.308Z,97481.13
2023-03-30T14:22:30.704Z,97485.53
2023-03-30T14:25:32.308Z,97434.53
2023-03-30T14:28:20.149Z,97490.38
2023-03-30T14:31:15.186Z,97481.00
2023-03-30T14:34:01.267Z,97476.59
2023-03-30T14:36:46.777Z,97486.94
2023-03-30T14:39:38.745Z,97459.84
2023-03-30T14:42:31.229Z,97485.19
2023-03-30T14:45:18.896Z,97479.91
2023-03-30T14:48:04.590Z,97470.03
2023-03-30T14:50:50.498Z,97474.31
2023-03-30T14:53:36.239Z,97469.16
2023-03-30T14:56:22.972Z,97467.84
2023-03-30T14:59:11.594Z,97480.78
2023-03-30T15:01:57.061Z,97473.13
2023-03-30T15:04:42.515Z,97478.88
2023-03-30T15:07:32.057Z,97465.72
2023-03-30T15:10:25.755Z,97456.69
2023-03-30T15:13:38.583Z,97450.38
2023-03-30T15:16:27.457Z,97482.31
2023-03-30T15:19:24.659Z,97479.97
2023-03-30T15:22:29.359Z,97480.19
2023-03-30T15:25:28.100Z,97418.00
2023-03-30T15:28:20.010Z,97473.56
2023-03-30T15:31:05.957Z,97468.50
2023-03-30T15:33:53.747Z,97468.03
2023-03-30T15:36:40.621Z,97416.66
2023-03-30T15:39:28.853Z,97439.56
2023-03-30T15:42:25.616Z,97465.00
2023-03-30T15:45:13.139Z,97465.75
2023-03-30T15:47:58.455Z,97456.88
2023-03-30T15:50:49.329Z,97458.19
2023-03-30T15:53:46.706Z,97455.34
2023-03-30T15:56:46.727Z,97465.63
2023-03-30T15:59:37.521Z,97471.38
2023-03-30T16:02:56.139Z,97474.00
2023-03-30T16:05:41.629Z,97469.44
2023-03-30T16:08:28.042Z,97468.19
2023-03-30T16:11:15.164Z,97391.00
2023-03-30T16:14:00.757Z,97474.38
2023-03-30T16:16:46.946Z,97479.16
2023-03-30T16:19:32.273Z,97482.31
2023-03-30T16:22:17.443Z,97498.22
2023-03-30T16:25:03.189Z,97489.81
2023-03-30T16:27:48.883Z,97490.13
2023-03-30T16:30:37.222Z,97460.13
2023-03-30T16:33:22.645Z,97498.00
2023-03-30T16:36:12.462Z,97494.38
2023-03-30T16:38:57.426Z,97492.53
2023-03-30T16:41:42.641Z,97495.13
2023-03-30T16:44:27.953Z,97487.09
2023-03-30T16:47:13.459Z,97495.13
2023-03-30T16:49:59.472Z,97487.69
2023-03-30T16:52:44.699Z,97508.44
2023-03-30T16:55:30.131Z,97518.28
2023-03-30T16:58:15.732Z,97437.91
2023-03-30T17:01:01.518Z,97514.28
2023-03-30T17:03:46.625Z,97514.91
2023-03-30T17:06:31.912Z,97511.34
2023-03-30T17:09:19.557Z,97515.53
2023-03-30T17:12:04.950Z,97500.88
2023-03-30T17:14:50.148Z,97521.75
2023-03-30T17:17:35.715Z,97521.59
2023-03-30T17:20:31.965Z,97527.38
2023-03-30T17:23:18.814Z,97533.72
2023-03-30T17:26:04.499Z,97532.38
2023-03-30T17:28:50.235Z,97532.84
2023-03-30T17:31:35.758Z,97528.19
2023-03-30T17:34:21.560Z,97513.88
2023-03-30T17:37:06.866Z,97518.81
2023-03-30T17:39:52.291Z,97518.53
2023-03-30T17:42:37.541Z,97520.63
2023-03-30T17:45:25.700Z,97458.53
2023-03-30T17:48:17.659Z,97505.78
2023-03-30T17:51:03.218Z,97510.63
2023-03-30T17:53:48.897Z,97420.25
2023-03-30T17:56:34.166Z,97520.72
2023-03-30T17:59:20.500Z,97517.03
2023-03-30T18:02:06.216Z,97525.00
2023-03-30T18:04:51.274Z,97536.09
2023-03-30T18:07:36.844Z,97469.03
2023-03-30T18:10:35.616Z,97541.84
2023-03-30T18:13:24.570Z,97548.28
2023-03-30T18:16:10.624Z,97500.50
2023-03-30T18:18:58.091Z,97559.25
2023-03-30T18:21:44.707Z,97558.88
2023-03-30T18:24:30.277Z,97561.75
2023-03-30T18:27:15.718Z,97553.56
2023-03-30T18:30:01.543Z,97559.91
2023-03-30T18:32:47.775Z,97566.22
2023-03-30T18:35:35.728Z,97571.50
2023-03-30T18:38:22.317Z,97562.97
2023-03-30T18:41:11.466Z,97574.75
2023-03-30T18:43:56.859Z,97584.25
2023-03-30T18:46:45.916Z,97579.56
2023-03-30T18:49:33.630Z,97578.22
2023-03-30T18:52:19.962Z,97593.41
2023-03-30T18:55:06.680Z,97604.59
2023-03-30T18:57:52.918Z,97589.16
2023-03-30T19:00:38.133Z,97603.56
2023-03-30T19:03:25.143Z,97536.88
2023-03-30T19:06:25.728Z,97603.97
2023-03-30T19:09:12.020Z,97611.88
2023-03-30T19:12:06.202Z,97610.25
2023-03-30T19:14:51.935Z,97593.22
2023-03-30T19:17:37.624Z,97613.94
2023-03-30T19:20:25.110Z,97614.34
2023-03-30T19:23:13.490Z,97545.56
2023-03-30T19:25:58.987Z,97607.44
2023-03-30T19:28:44.258Z,97591.00
2023-03-30T19:31:29.593Z,97614.53
2023-03-30T19:34:14.814Z,97617.97
2023-03-30T19:37:00.436Z,97599.50
2023-03-30T19:39:45.611Z,97627.09
2023-03-30T19:42:30.952Z,97641.06
2023-03-30T19:45:19.163Z,97645.94
2023-03-30T19:48:04.796Z,97638.63
2023-03-30T19:50:50.550Z,97648.97
2023-03-30T19:53:36.115Z,97642.47
2023-03-30T19:56:21.432Z,97637.97
2023-03-30T19:59:06.734Z,97634.34
2023-03-30T20:01:51.954Z,97608.00
2023-03-30T20:04:37.085Z,97607.16
2023-03-30T20:07:22.627Z,97620.88
2023-03-30T20:10:10.693Z,97590.84
2023-03-30T20:12:55.912Z,97612.72
2023-03-30T20:15:40.950Z,97610.13
2023-03-30T20:18:26.082Z,97606.31
2023-03-30T20:21:11.312Z,97599.22
2023-03-30T20:23:56.876Z,97595.41
2023-03-30T20:26:43.313Z,97598.88
2023-03-30T20:29:28.499Z,97592.94
2023-03-30T20:32:13.990Z,97558.81
2023-03-30T20:34:59.216Z,97573.47
2023-03-30T20:37:44.519Z,97578.72
2023-03-30T20:40:30.695Z,97581.38
2023-03-30T20:43:15.987Z,97580.59
2023-03-30T20:46:01.575Z,97564.41
2023-03-30T20:48:47.045Z,97573.75
2023-03-30T20:51:32.519Z,97575.56
2023-03-30T20:54:17.957Z,97556.50
2023-03-30T20:57:04.145Z,97583.28
2023-03-30T20:59:50.311Z,97578.81
2023-03-30T21:02:35.794Z,97576.16
2023-03-30T21:05:20.952Z,97582.06
2023-03-30T21:08:06.814Z,97544.97
2023-03-30T21:10:52.315Z,97575.19
2023-03-30T21:13:37.403Z,97572.94
2023-03-30T21:16:24.296Z,97567.44
2023-03-30T21:19:09.573Z,97564.63
2023-03-30T21:21:55.750Z,97566.25
2023-03-30T21:24:40.863Z,97506.59
2023-03-30T21:27:26.288Z,97536.81
2023-03-30T21:30:12.241Z,97565.97
2023-03-30T21:32:57.536Z,97503.59
2023-03-30T21:35:42.952Z,97548.78
2023-03-30T21:38:30.347Z,97544.97
2023-03-30T21:41:17.969Z,97541.16
2023-03-30T21:44:03.519Z,97551.75
2023-03-30T21:46:48.734Z,97556.22
2023-03-30T21:49:34.139Z,97538.59
2023-03-30T21:52:19.535Z,97539.56
2023-03-30T21:55:05.365Z,97557.53
2023-03-30T21:57:50.662Z,97542.19
2023-03-30T22:00:36.187Z,97491.91
2023-03-30T22:03:21.944Z,97536.19
2023-03-30T22:06:09.581Z,97531.75
2023-03-30T22:08:54.994Z,97538.19
2023-03-30T22:11:40.372Z,97476.19
2023-03-30T22:14:25.626Z,97525.25
2023-03-30T22:17:10.850Z,97525.09
2023-03-30T22:19:56.440Z,97524.06
2023-03-30T22:22:42.675Z,97499.75
2023-03-30T22:25:28.010Z,97517.38
2023-03-30T22:28:13.164Z,97512.09
2023-03-30T22:30:58.336Z,97506.84
2023-03-30T22:33:43.870Z,97502.16
2023-03-30T22:36:30.569Z,97503.78
2023-03-30T22:39:16.195Z,97455.50
2023-03-30T22:42:01.596Z,97475.66
2023-03-30T22:44:47.049Z,97493.09
2023-03-30T22:47:32.579Z,97495.69
2023-03-30T22:50:17.926Z,97497.41
2023-03-30T22:53:03.710Z,97495.47
2023-03-30T22:55:49.140Z,97487.56
2023-03-30T22:58:35.054Z,97491.63
2023-03-30T23:01:20.228Z,97479.06
2023-03-30T23:04:07.070Z,97485.13
2023-03-30T23:06:52.364Z,97475.75
2023-03-30T23:09:37.502Z,97475.28
2023-03-30T23:12:22.598Z,97475.75
2023-03-30T23:15:09.318Z,97440.75
2023-03-30T23:17:55.117Z,97470.56
2023-03-30T23:20:40.411Z,97419.28
2023-03-30T23:23:26.624Z,97466.53
2023-03-30T23:26:12.061Z,97462.09
2023-03-30T23:28:58.622Z,97458.03
2023-03-30T23:31:43.714Z,97453.19
2023-03-30T23:34:29.579Z,97450.94
2023-03-30T23:37:14.824Z,97437.59
2023-03-30T23:40:00.382Z,97455.22
2023-03-30T23:42:45.943Z,97451.53
2023-03-30T23:45:31.131Z,97442.84
2023-03-30T23:48:16.979Z,97445.25
2023-03-30T23:51:02.684Z,97438.09
2023-03-30T23:53:48.239Z,97435.28
2023-03-30T23:56:35.890Z,97433.28
2023-03-30T23:59:21.311Z,97430.91
